createdAt,value
2017-12-04T15:16:29.954Z,13.57
2017-12-04T15:18:59.159Z,10.90
2017-12-04T15:21:28.367Z,11.87
2017-12-04T15:23:57.878Z,11.57
2017-12-04T15:26:27.115Z,11.03
2017-12-04T15:28:56.312Z,10.10
2017-12-04T15:31:25.519Z,11.87
2017-12-04T15:33:54.771Z,10.07
2017-12-04T15:36:24.796Z,10.60
2017-12-04T15:38:54.738Z,10.00
2017-12-04T15:41:23.943Z,9.90
2017-12-04T15:43:53.152Z,11.27
2017-12-04T15:46:22.383Z,12.00
2017-12-04T15:48:51.604Z,13.30
2017-12-04T15:51:21.681Z,14.20
2017-12-04T15:53:50.893Z,13.30
2017-12-04T15:56:20.185Z,15.83
2017-12-04T15:58:49.416Z,13.00
2017-12-04T16:01:19.524Z,13.13
2017-12-04T16:03:49.527Z,10.13
2017-12-04T16:06:18.742Z,9.50
2017-12-04T16:08:48.696Z,10.57
2017-12-04T16:11:17.905Z,9.27
2017-12-04T16:13:47.128Z,11.27
2017-12-04T16:16:16.344Z,10.13
2017-12-04T16:18:46.348Z,10.07
2017-12-04T16:21:15.597Z,10.90
2017-12-04T16:23:45.615Z,10.00
2017-12-04T16:26:14.859Z,10.87
2017-12-04T16:28:44.077Z,9.17
2017-12-04T16:31:13.325Z,10.23
2017-12-04T16:33:42.540Z,13.27
2017-12-04T16:36:11.785Z,13.57
2017-12-04T16:38:41.039Z,10.50
2017-12-04T16:41:10.235Z,10.07
2017-12-04T16:43:39.485Z,10.70
2017-12-04T16:46:08.697Z,11.83
2017-12-04T16:48:37.947Z,13.70
2017-12-04T16:51:07.944Z,12.23
2017-12-04T16:53:37.159Z,13.00
2017-12-04T16:56:06.383Z,12.90
2017-12-04T16:58:36.372Z,12.47
2017-12-04T17:01:05.638Z,13.00
2017-12-04T17:03:34.864Z,13.53
2017-12-04T17:06:04.835Z,12.60
2017-12-04T17:08:34.193Z,11.80
2017-12-04T17:11:03.391Z,10.83
2017-12-04T17:13:33.388Z,12.90
2017-12-04T17:16:02.913Z,15.37
2017-12-04T17:18:32.185Z,10.97
2017-12-04T17:21:01.450Z,13.40
2017-12-04T17:23:30.652Z,12.10
2017-12-04T17:25:59.887Z,12.77
2017-12-04T17:28:29.424Z,13.50
2017-12-04T17:30:58.687Z,11.87
2017-12-04T17:33:27.894Z,13.63
2017-12-04T17:35:57.122Z,12.13
2017-12-04T17:38:26.322Z,14.07
2017-12-04T17:40:55.559Z,16.30
2017-12-04T17:43:24.784Z,17.23
2017-12-04T17:45:54.818Z,17.60
2017-12-04T17:48:24.832Z,17.87
2017-12-04T17:50:54.893Z,20.90
2017-12-04T17:53:24.156Z,19.23
2017-12-04T17:55:54.164Z,17.77
2017-12-04T17:58:24.126Z,16.37
2017-12-04T18:00:53.398Z,16.30
2017-12-04T18:03:22.599Z,16.77
2017-12-04T18:05:51.806Z,15.93
2017-12-04T18:08:21.017Z,16.40
2017-12-04T18:10:50.221Z,16.17
2017-12-04T18:13:19.516Z,16.07
2017-12-04T18:15:48.746Z,15.60
2017-12-04T18:18:17.981Z,18.50
2017-12-04T18:20:47.177Z,17.33
2017-12-04T18:23:17.174Z,17.03
2017-12-04T18:25:47.171Z,15.30
2017-12-04T18:28:17.223Z,17.20
2017-12-04T18:30:46.458Z,16.77
2017-12-04T18:33:15.768Z,17.00
2017-12-04T18:35:44.959Z,14.70
2017-12-04T18:38:14.249Z,14.70
2017-12-04T18:40:43.458Z,14.90
2017-12-04T18:43:12.743Z,13.17
2017-12-04T18:45:41.940Z,12.20
2017-12-04T18:48:11.149Z,14.13
2017-12-04T18:50:40.377Z,12.33
2017-12-04T18:53:09.600Z,13.10
2017-12-04T18:55:38.821Z,11.80
2017-12-04T18:58:08.076Z,11.70
2017-12-04T19:00:37.326Z,12.53
2017-12-04T19:03:08.295Z,10.60
2017-12-04T19:05:37.586Z,12.10
2017-12-04T19:08:06.933Z,10.40
2017-12-04T19:10:36.971Z,11.93
2017-12-04T19:13:06.226Z,11.50
2017-12-04T19:15:36.179Z,12.53
2017-12-04T19:18:05.501Z,13.20
2017-12-04T19:20:34.683Z,12.20
2017-12-04T19:23:03.976Z,10.90
2017-12-04T19:25:33.251Z,12.40
2017-12-04T19:28:02.461Z,14.63
2017-12-04T19:30:31.683Z,11.27
2017-12-04T19:33:00.899Z,12.50
2017-12-04T19:35:30.171Z,11.47
2017-12-04T19:37:59.522Z,12.67
2017-12-04T19:40:29.579Z,12.17
2017-12-04T19:42:58.850Z,14.03
2017-12-04T19:45:28.136Z,13.47
2017-12-04T19:47:57.624Z,13.60
2017-12-04T19:50:26.825Z,16.07
2017-12-04T19:52:56.039Z,14.13
2017-12-04T19:55:26.411Z,14.67
2017-12-04T19:57:55.635Z,15.53
2017-12-04T20:00:25.869Z,14.90
2017-12-04T20:02:55.201Z,14.30
2017-12-04T20:05:24.434Z,15.80
2017-12-04T20:07:53.791Z,16.63
2017-12-04T20:10:23.859Z,15.10
2017-12-04T20:12:53.157Z,16.33
2017-12-04T20:15:22.462Z,15.40
2017-12-04T20:17:51.708Z,16.10
2017-12-04T20:20:20.990Z,17.23
2017-12-04T20:22:50.228Z,17.03
2017-12-04T20:25:19.529Z,15.37
2017-12-04T20:27:48.803Z,15.20
2017-12-04T20:30:17.992Z,15.50
2017-12-04T20:32:47.961Z,16.53
2017-12-04T20:35:17.212Z,16.90
2017-12-04T20:37:47.217Z,16.03
2017-12-04T20:40:16.459Z,18.43
2017-12-04T20:42:45.766Z,18.90
2017-12-04T20:45:15.035Z,24.10
2017-12-04T20:47:45.026Z,21.23
2017-12-04T20:50:14.298Z,16.80
2017-12-04T20:52:43.459Z,20.23
2017-12-04T20:55:12.752Z,19.83
2017-12-04T20:57:42.312Z,25.10
2017-12-04T21:00:11.582Z,20.70
2017-12-04T21:02:40.846Z,20.90
2017-12-04T21:05:10.115Z,21.20
2017-12-04T21:07:51.834Z,19.63
2017-12-04T21:10:39.503Z,20.43
2017-12-04T21:13:26.490Z,20.40
2017-12-04T21:16:26.623Z,21.47
2017-12-04T21:18:55.850Z,20.20
2017-12-04T21:21:25.165Z,20.83
2017-12-04T21:23:54.347Z,18.57
2017-12-04T21:26:23.607Z,16.90
2017-12-04T21:28:52.833Z,22.33
2017-12-04T21:31:22.152Z,26.57
2017-12-04T21:33:52.122Z,21.10
2017-12-04T21:36:22.129Z,25.00
2017-12-04T21:38:51.435Z,17.57
2017-12-04T21:41:20.683Z,18.63
2017-12-04T21:43:50.061Z,16.43
2017-12-04T21:46:19.242Z,17.40
2017-12-04T21:48:48.564Z,16.50
2017-12-04T21:51:17.785Z,15.43
2017-12-04T21:53:47.041Z,15.47
2017-12-04T21:56:16.260Z,15.10
2017-12-04T21:58:45.475Z,17.07
2017-12-04T22:01:14.849Z,16.20
2017-12-04T22:03:44.075Z,19.13
2017-12-04T22:06:13.310Z,20.30
2017-12-04T22:08:43.285Z,19.03
2017-12-04T22:11:12.526Z,18.33
2017-12-04T22:13:42.501Z,19.87
2017-12-04T22:16:11.784Z,20.57
2017-12-04T22:18:41.165Z,19.00
2017-12-04T22:21:11.233Z,19.77
2017-12-04T22:23:40.486Z,19.83
2017-12-04T22:26:09.703Z,20.03
2017-12-04T22:28:38.906Z,19.17
2017-12-04T22:31:08.152Z,22.17
2017-12-04T22:33:38.157Z,20.40
2017-12-04T22:36:08.111Z,22.27
2017-12-04T22:38:37.317Z,23.87
2017-12-04T22:41:06.528Z,23.60
2017-12-04T22:43:35.784Z,24.80
2017-12-04T22:46:04.972Z,24.00
2017-12-04T22:48:34.186Z,26.67
2017-12-04T22:51:03.670Z,26.83
2017-12-04T22:53:32.880Z,25.60
2017-12-04T22:56:02.230Z,26.33
2017-12-04T22:58:31.434Z,24.37
2017-12-04T23:01:00.654Z,26.30
2017-12-04T23:03:30.643Z,24.90
2017-12-04T23:05:59.973Z,25.77
2017-12-04T23:08:29.955Z,25.10
2017-12-04T23:10:59.231Z,25.07
2017-12-04T23:13:28.426Z,25.00
2017-12-04T23:15:57.638Z,26.80
2017-12-04T23:18:26.826Z,25.03
